sensor_id;sensor_type;location;lat;lon;timestamp;P1;durP1;ratioP1;P2;durP2;ratioP2
51098;SDS011;37146;48.210;16.234;2022-09-06T00:00:32;7.32;;;5.43;;
51098;SDS011;37146;48.210;16.234;2022-09-06T00:02:58;9.30;;;6.05;;
51098;SDS011;37146;48.210;16.234;2022-09-06T00:05:23;8.93;;;5.70;;
51098;SDS011;37146;48.210;16.234;2022-09-06T00:07:49;8.70;;;6.00;;
51098;SDS011;37146;48.210;16.234;2022-09-06T00:10:14;8.90;;;5.60;;
51098;SDS011;37146;48.210;16.234;2022-09-06T00:12:40;8.23;;;5.82;;
51098;SDS011;37146;48.210;16.234;2022-09-06T00:15:05;9.38;;;5.80;;
51098;SDS011;37146;48.210;16.234;2022-09-06T00:17:31;6.07;;;5.47;;
51098;SDS011;37146;48.210;16.234;2022-09-06T00:19:57;9.05;;;5.88;;
51098;SDS011;37146;48.210;16.234;2022-09-06T00:22:22;9.98;;;5.50;;
51098;SDS011;37146;48.210;16.234;2022-09-06T00:24:48;8.05;;;5.45;;
51098;SDS011;37146;48.210;16.234;2022-09-06T00:27:13;7.47;;;5.28;;
51098;SDS011;37146;48.210;16.234;2022-09-06T00:29:38;7.15;;;5.60;;
51098;SDS011;37146;48.210;16.234;2022-09-06T00:32:04;7.68;;;6.00;;
51098;SDS011;37146;48.210;16.234;2022-09-06T00:34:29;5.97;;;5.30;;
51098;SDS011;37146;48.210;16.234;2022-09-06T00:36:55;7.80;;;6.18;;
51098;SDS011;37146;48.210;16.234;2022-09-06T00:39:20;8.15;;;5.72;;
51098;SDS011;37146;48.210;16.234;2022-09-06T00:41:45;9.75;;;6.10;;
51098;SDS011;37146;48.210;16.234;2022-09-06T00:44:11;8.35;;;6.30;;
51098;SDS011;37146;48.210;16.234;2022-09-06T00:46:36;7.75;;;6.10;;
51098;SDS011;37146;48.210;16.234;2022-09-06T00:49:08;6.75;;;6.05;;
51098;SDS011;37146;48.210;16.234;2022-09-06T00:51:38;7.80;;;5.78;;
51098;SDS011;37146;48.210;16.234;2022-09-06T00:54:05;6.82;;;6.13;;
51098;SDS011;37146;48.210;16.234;2022-09-06T00:56:33;7.00;;;5.93;;
51098;SDS011;37146;48.210;16.234;2022-09-06T00:59:02;6.68;;;5.82;;
51098;SDS011;37146;48.210;16.234;2022-09-06T01:01:28;9.65;;;5.85;;
51098;SDS011;37146;48.210;16.234;2022-09-06T01:03:53;9.90;;;5.75;;
51098;SDS011;37146;48.210;16.234;2022-09-06T01:29:03;8.48;;;6.00;;
51098;SDS011;37146;48.210;16.234;2022-09-06T01:31:56;8.45;;;5.75;;
51098;SDS011;37146;48.210;16.234;2022-09-06T01:34:54;8.05;;;5.80;;
51098;SDS011;37146;48.210;16.234;2022-09-06T01:37:25;8.88;;;6.43;;
51098;SDS011;37146;48.210;16.234;2022-09-06T01:39:51;7.20;;;6.20;;
51098;SDS011;37146;48.210;16.234;2022-09-06T01:42:18;8.13;;;5.90;;
51098;SDS011;37146;48.210;16.234;2022-09-06T01:44:49;10.70;;;6.38;;
51098;SDS011;37146;48.210;16.234;2022-09-06T01:55:57;7.70;;;5.72;;
51098;SDS011;37146;48.210;16.234;2022-09-06T02:01:42;8.13;;;5.85;;
51098;SDS011;37146;48.210;16.234;2022-09-06T02:04:25;8.02;;;5.88;;
51098;SDS011;37146;48.210;16.234;2022-09-06T02:07:06;8.23;;;5.85;;
51098;SDS011;37146;48.210;16.234;2022-09-06T02:09:40;8.60;;;5.70;;
51098;SDS011;37146;48.210;16.234;2022-09-06T02:12:09;9.48;;;6.43;;
51098;SDS011;37146;48.210;16.234;2022-09-06T02:14:52;8.27;;;6.00;;
51098;SDS011;37146;48.210;16.234;2022-09-06T02:17:23;8.77;;;6.07;;
51098;SDS011;37146;48.210;16.234;2022-09-06T02:20:05;8.13;;;5.72;;
51098;SDS011;37146;48.210;16.234;2022-09-06T02:22:36;8.50;;;6.55;;
51098;SDS011;37146;48.210;16.234;2022-09-06T02:25:06;9.02;;;6.03;;
51098;SDS011;37146;48.210;16.234;2022-09-06T02:27:35;8.27;;;6.43;;
51098;SDS011;37146;48.210;16.234;2022-09-06T02:30:01;7.00;;;6.30;;
51098;SDS011;37146;48.210;16.234;2022-09-06T02:32:28;7.55;;;6.30;;
51098;SDS011;37146;48.210;16.234;2022-09-06T02:34:55;8.40;;;7.30;;
51098;SDS011;37146;48.210;16.234;2022-09-06T02:37:24;11.52;;;8.85;;
51098;SDS011;37146;48.210;16.234;2022-09-06T02:39:51;12.18;;;8.48;;
51098;SDS011;37146;48.210;16.234;2022-09-06T02:42:19;10.52;;;8.80;;
51098;SDS011;37146;48.210;16.234;2022-09-06T02:44:46;10.65;;;9.00;;
51098;SDS011;37146;48.210;16.234;2022-09-06T02:47:11;9.70;;;8.13;;
51098;SDS011;37146;48.210;16.234;2022-09-06T02:49:36;9.68;;;8.25;;
51098;SDS011;37146;48.210;16.234;2022-09-06T02:52:02;9.73;;;8.00;;
51098;SDS011;37146;48.210;16.234;2022-09-06T02:54:27;10.60;;;8.75;;
51098;SDS011;37146;48.210;16.234;2022-09-06T02:56:53;8.98;;;8.02;;
51098;SDS011;37146;48.210;16.234;2022-09-06T02:59:18;8.55;;;7.65;;
51098;SDS011;37146;48.210;16.234;2022-09-06T03:01:43;9.07;;;7.93;;
51098;SDS011;37146;48.210;16.234;2022-09-06T03:04:09;11.38;;;8.00;;
51098;SDS011;37146;48.210;16.234;2022-09-06T03:06:34;9.95;;;7.70;;
51098;SDS011;37146;48.210;16.234;2022-09-06T03:09:00;9.13;;;7.68;;
51098;SDS011;37146;48.210;16.234;2022-09-06T03:11:25;9.20;;;7.45;;
51098;SDS011;37146;48.210;16.234;2022-09-06T03:13:51;11.23;;;7.53;;
51098;SDS011;37146;48.210;16.234;2022-09-06T03:16:17;9.85;;;7.60;;
51098;SDS011;37146;48.210;16.234;2022-09-06T03:18:43;9.07;;;6.88;;
51098;SDS011;37146;48.210;16.234;2022-09-06T03:21:09;7.47;;;6.68;;
51098;SDS011;37146;48.210;16.234;2022-09-06T03:23:35;10.02;;;6.68;;
51098;SDS011;37146;48.210;16.234;2022-09-06T03:26:03;8.55;;;6.90;;
51098;SDS011;37146;48.210;16.234;2022-09-06T03:28:29;7.68;;;6.88;;
51098;SDS011;37146;48.210;16.234;2022-09-06T03:30:54;8.38;;;6.85;;
51098;SDS011;37146;48.210;16.234;2022-09-06T03:33:20;9.85;;;6.88;;
51098;SDS011;37146;48.210;16.234;2022-09-06T03:35:46;8.25;;;6.75;;
51098;SDS011;37146;48.210;16.234;2022-09-06T03:38:24;8.48;;;7.35;;
51098;SDS011;37146;48.210;16.234;2022-09-06T03:40:51;10.27;;;7.80;;
51098;SDS011;37146;48.210;16.234;2022-09-06T03:43:17;11.55;;;9.00;;
51098;SDS011;37146;48.210;16.234;2022-09-06T03:45:44;10.60;;;8.70;;
51098;SDS011;37146;48.210;16.234;2022-09-06T03:48:14;11.57;;;7.90;;
51098;SDS011;37146;48.210;16.234;2022-09-06T03:50:43;11.50;;;8.18;;
51098;SDS011;37146;48.210;16.234;2022-09-06T03:53:10;13.45;;;8.90;;
51098;SDS011;37146;48.210;16.234;2022-09-06T03:55:35;10.35;;;8.50;;
51098;SDS011;37146;48.210;16.234;2022-09-06T03:58:01;9.93;;;7.60;;
51098;SDS011;37146;48.210;16.234;2022-09-06T04:00:26;9.48;;;7.03;;
51098;SDS011;37146;48.210;16.234;2022-09-06T04:02:51;10.05;;;7.03;;
51098;SDS011;37146;48.210;16.234;2022-09-06T04:05:17;10.07;;;7.30;;
51098;SDS011;37146;48.210;16.234;2022-09-06T04:07:42;9.65;;;7.20;;
51098;SDS011;37146;48.210;16.234;2022-09-06T04:10:08;8.90;;;7.32;;
51098;SDS011;37146;48.210;16.234;2022-09-06T04:12:33;10.80;;;6.97;;
51098;SDS011;37146;48.210;16.234;2022-09-06T04:14:59;15.02;;;7.75;;
51098;SDS011;37146;48.210;16.234;2022-09-06T04:17:24;10.05;;;7.20;;
51098;SDS011;37146;48.210;16.234;2022-09-06T04:19:49;8.95;;;6.75;;
51098;SDS011;37146;48.210;16.234;2022-09-06T04:22:15;9.32;;;6.82;;
51098;SDS011;37146;48.210;16.234;2022-09-06T04:24:40;9.80;;;6.93;;
51098;SDS011;37146;48.210;16.234;2022-09-06T04:27:05;11.27;;;7.10;;
51098;SDS011;37146;48.210;16.234;2022-09-06T04:29:31;8.75;;;6.60;;
51098;SDS011;37146;48.210;16.234;2022-09-06T04:31:57;10.02;;;6.68;;
51098;SDS011;37146;48.210;16.234;2022-09-06T04:34:22;7.47;;;6.32;;
51098;SDS011;37146;48.210;16.234;2022-09-06T04:36:47;9.88;;;7.10;;
51098;SDS011;37146;48.210;16.234;2022-09-06T04:39:13;11.25;;;7.80;;
51098;SDS011;37146;48.210;16.234;2022-09-06T04:41:38;11.20;;;9.25;;
51098;SDS011;37146;48.210;16.234;2022-09-06T04:44:03;11.32;;;9.55;;
51098;SDS011;37146;48.210;16.234;2022-09-06T04:46:29;12.95;;;8.52;;
51098;SDS011;37146;48.210;16.234;2022-09-06T04:48:54;10.15;;;8.32;;
51098;SDS011;37146;48.210;16.234;2022-09-06T04:51:21;10.43;;;8.40;;
51098;SDS011;37146;48.210;16.234;2022-09-06T04:53:48;10.90;;;8.20;;
51098;SDS011;37146;48.210;16.234;2022-09-06T04:56:14;11.45;;;7.72;;
51098;SDS011;37146;48.210;16.234;2022-09-06T04:58:43;9.98;;;7.78;;
51098;SDS011;37146;48.210;16.234;2022-09-06T05:01:09;10.25;;;7.78;;
51098;SDS011;37146;48.210;16.234;2022-09-06T05:03:34;10.80;;;7.15;;
51098;SDS011;37146;48.210;16.234;2022-09-06T05:06:07;8.40;;;7.05;;
51098;SDS011;37146;48.210;16.234;2022-09-06T05:08:37;9.85;;;7.80;;
51098;SDS011;37146;48.210;16.234;2022-09-06T05:11:04;12.13;;;7.35;;
51098;SDS011;37146;48.210;16.234;2022-09-06T05:13:31;9.38;;;7.63;;
51098;SDS011;37146;48.210;16.234;2022-09-06T05:16:00;13.80;;;10.57;;
51098;SDS011;37146;48.210;16.234;2022-09-06T05:18:26;18.05;;;11.27;;
51098;SDS011;37146;48.210;16.234;2022-09-06T05:20:52;12.23;;;9.00;;
51098;SDS011;37146;48.210;16.234;2022-09-06T05:23:18;14.00;;;8.18;;
51098;SDS011;37146;48.210;16.234;2022-09-06T05:25:47;9.70;;;7.40;;
51098;SDS011;37146;48.210;16.234;2022-09-06T05:28:13;12.35;;;6.80;;
51098;SDS011;37146;48.210;16.234;2022-09-06T05:30:39;12.63;;;7.90;;
51098;SDS011;37146;48.210;16.234;2022-09-06T05:33:05;11.98;;;8.63;;
51098;SDS011;37146;48.210;16.234;2022-09-06T05:35:31;9.38;;;7.38;;
51098;SDS011;37146;48.210;16.234;2022-09-06T05:37:57;13.13;;;7.60;;
51098;SDS011;37146;48.210;16.234;2022-09-06T05:40:22;9.18;;;7.10;;
51098;SDS011;37146;48.210;16.234;2022-09-06T05:42:47;11.02;;;7.28;;
51098;SDS011;37146;48.210;16.234;2022-09-06T05:45:13;9.85;;;6.68;;
51098;SDS011;37146;48.210;16.234;2022-09-06T05:47:38;11.30;;;7.05;;
51098;SDS011;37146;48.210;16.234;2022-09-06T05:50:04;10.55;;;7.63;;
51098;SDS011;37146;48.210;16.234;2022-09-06T05:52:31;8.68;;;6.88;;
51098;SDS011;37146;48.210;16.234;2022-09-06T05:54:58;12.15;;;7.05;;
51098;SDS011;37146;48.210;16.234;2022-09-06T05:57:24;10.60;;;6.90;;
51098;SDS011;37146;48.210;16.234;2022-09-06T05:59:49;8.88;;;7.25;;
51098;SDS011;37146;48.210;16.234;2022-09-06T06:02:17;9.05;;;7.10;;
51098;SDS011;37146;48.210;16.234;2022-09-06T06:04:43;12.32;;;6.95;;
51098;SDS011;37146;48.210;16.234;2022-09-06T06:07:08;7.55;;;6.63;;
51098;SDS011;37146;48.210;16.234;2022-09-06T06:09:33;8.90;;;6.93;;
51098;SDS011;37146;48.210;16.234;2022-09-06T06:11:59;9.73;;;6.90;;
51098;SDS011;37146;48.210;16.234;2022-09-06T06:14:24;7.97;;;6.57;;
51098;SDS011;37146;48.210;16.234;2022-09-06T06:16:49;9.70;;;6.85;;
51098;SDS011;37146;48.210;16.234;2022-09-06T06:19:15;10.05;;;6.70;;
51098;SDS011;37146;48.210;16.234;2022-09-06T06:21:41;10.18;;;7.32;;
51098;SDS011;37146;48.210;16.234;2022-09-06T06:24:07;8.50;;;7.05;;
51098;SDS011;37146;48.210;16.234;2022-09-06T06:26:33;11.52;;;6.72;;
51098;SDS011;37146;48.210;16.234;2022-09-06T06:29:00;10.88;;;6.63;;
51098;SDS011;37146;48.210;16.234;2022-09-06T06:31:30;9.05;;;6.95;;
51098;SDS011;37146;48.210;16.234;2022-09-06T06:33:57;11.23;;;7.40;;
51098;SDS011;37146;48.210;16.234;2022-09-06T06:36:23;8.63;;;6.93;;
51098;SDS011;37146;48.210;16.234;2022-09-06T06:38:54;8.50;;;6.93;;
51098;SDS011;37146;48.210;16.234;2022-09-06T06:41:21;10.80;;;6.95;;
51098;SDS011;37146;48.210;16.234;2022-09-06T06:43:51;10.35;;;6.93;;
51098;SDS011;37146;48.210;16.234;2022-09-06T06:46:17;9.45;;;7.00;;
51098;SDS011;37146;48.210;16.234;2022-09-06T06:48:44;7.32;;;6.57;;
51098;SDS011;37146;48.210;16.234;2022-09-06T06:51:11;10.93;;;6.82;;
51098;SDS011;37146;48.210;16.234;2022-09-06T06:53:38;12.48;;;7.15;;
51098;SDS011;37146;48.210;16.234;2022-09-06T06:56:23;9.50;;;7.15;;
51098;SDS011;37146;48.210;16.234;2022-09-06T06:58:58;11.07;;;7.20;;
51098;SDS011;37146;48.210;16.234;2022-09-06T07:01:26;9.27;;;6.90;;
51098;SDS011;37146;48.210;16.234;2022-09-06T07:03:53;11.45;;;7.93;;
51098;SDS011;37146;48.210;16.234;2022-09-06T07:06:19;13.93;;;8.18;;
51098;SDS011;37146;48.210;16.234;2022-09-06T07:08:46;11.10;;;8.10;;
51098;SDS011;37146;48.210;16.234;2022-09-06T07:11:12;9.30;;;8.02;;
51098;SDS011;37146;48.210;16.234;2022-09-06T07:13:39;13.40;;;8.52;;
51098;SDS011;37146;48.210;16.234;2022-09-06T07:18:33;16.20;;;9.05;;
51098;SDS011;37146;48.210;16.234;2022-09-06T07:20:59;12.48;;;8.82;;
51098;SDS011;37146;48.210;16.234;2022-09-06T07:23:24;13.18;;;8.38;;
51098;SDS011;37146;48.210;16.234;2022-09-06T07:25:49;16.95;;;10.02;;
51098;SDS011;37146;48.210;16.234;2022-09-06T07:28:15;10.27;;;8.27;;
51098;SDS011;37146;48.210;16.234;2022-09-06T07:30:40;12.27;;;8.07;;
51098;SDS011;37146;48.210;16.234;2022-09-06T07:33:06;13.05;;;7.88;;
51098;SDS011;37146;48.210;16.234;2022-09-06T07:35:32;15.30;;;7.75;;
51098;SDS011;37146;48.210;16.234;2022-09-06T07:37:58;11.63;;;8.82;;
51098;SDS011;37146;48.210;16.234;2022-09-06T07:40:25;11.55;;;8.10;;
51098;SDS011;37146;48.210;16.234;2022-09-06T07:42:55;11.55;;;8.13;;
51098;SDS011;37146;48.210;16.234;2022-09-06T07:45:23;13.85;;;9.25;;
51098;SDS011;37146;48.210;16.234;2022-09-06T07:47:52;14.65;;;9.13;;
51098;SDS011;37146;48.210;16.234;2022-09-06T07:50:24;13.52;;;9.20;;
51098;SDS011;37146;48.210;16.234;2022-09-06T07:52:51;15.88;;;8.43;;
51098;SDS011;37146;48.210;16.234;2022-09-06T07:55:16;10.52;;;8.88;;
51098;SDS011;37146;48.210;16.234;2022-09-06T07:57:42;11.35;;;8.43;;
51098;SDS011;37146;48.210;16.234;2022-09-06T08:00:07;11.30;;;8.90;;
51098;SDS011;37146;48.210;16.234;2022-09-06T08:02:35;10.82;;;8.50;;
51098;SDS011;37146;48.210;16.234;2022-09-06T08:05:00;11.35;;;8.02;;
51098;SDS011;37146;48.210;16.234;2022-09-06T08:07:26;12.73;;;9.40;;
51098;SDS011;37146;48.210;16.234;2022-09-06T08:09:51;13.07;;;9.73;;
51098;SDS011;37146;48.210;16.234;2022-09-06T08:12:17;15.80;;;8.80;;
51098;SDS011;37146;48.210;16.234;2022-09-06T08:14:42;14.50;;;9.43;;
51098;SDS011;37146;48.210;16.234;2022-09-06T08:17:08;15.57;;;9.75;;
51098;SDS011;37146;48.210;16.234;2022-09-06T08:19:33;12.02;;;8.75;;
51098;SDS011;37146;48.210;16.234;2022-09-06T08:21:59;11.25;;;8.50;;
51098;SDS011;37146;48.210;16.234;2022-09-06T08:24:24;17.17;;;9.05;;
51098;SDS011;37146;48.210;16.234;2022-09-06T08:26:49;12.43;;;8.60;;
51098;SDS011;37146;48.210;16.234;2022-09-06T08:29:15;13.23;;;8.93;;
51098;SDS011;37146;48.210;16.234;2022-09-06T08:31:41;13.45;;;9.50;;
51098;SDS011;37146;48.210;16.234;2022-09-06T08:34:08;13.75;;;9.30;;
51098;SDS011;37146;48.210;16.234;2022-09-06T08:36:36;12.38;;;8.70;;
51098;SDS011;37146;48.210;16.234;2022-09-06T08:39:03;11.30;;;8.07;;
51098;SDS011;37146;48.210;16.234;2022-09-06T08:41:32;11.75;;;7.60;;
51098;SDS011;37146;48.210;16.234;2022-09-06T08:44:07;11.38;;;8.10;;
51098;SDS011;37146;48.210;16.234;2022-09-06T08:46:39;10.38;;;8.52;;
51098;SDS011;37146;48.210;16.234;2022-09-06T08:49:12;8.25;;;6.47;;
51098;SDS011;37146;48.210;16.234;2022-09-06T08:51:56;15.57;;;7.10;;
51098;SDS011;37146;48.210;16.234;2022-09-06T08:54:38;9.70;;;6.15;;
51098;SDS011;37146;48.210;16.234;2022-09-06T08:57:09;12.77;;;7.00;;
51098;SDS011;37146;48.210;16.234;2022-09-06T08:59:46;9.45;;;6.70;;
51098;SDS011;37146;48.210;16.234;2022-09-06T09:02:16;7.45;;;6.60;;
51098;SDS011;37146;48.210;16.234;2022-09-06T09:04:51;9.90;;;6.88;;
51098;SDS011;37146;48.210;16.234;2022-09-06T09:10:39;10.68;;;6.38;;
51098;SDS011;37146;48.210;16.234;2022-09-06T09:13:05;7.68;;;5.32;;
51098;SDS011;37146;48.210;16.234;2022-09-06T09:15:33;10.07;;;6.22;;
51098;SDS011;37146;48.210;16.234;2022-09-06T09:18:01;8.38;;;5.20;;
51098;SDS011;37146;48.210;16.234;2022-09-06T09:20:27;16.48;;;7.28;;
51098;SDS011;37146;48.210;16.234;2022-09-06T09:22:53;9.65;;;5.20;;
51098;SDS011;37146;48.210;16.234;2022-09-06T09:25:22;7.38;;;5.07;;
51098;SDS011;37146;48.210;16.234;2022-09-06T09:27:51;6.63;;;5.40;;
51098;SDS011;37146;48.210;16.234;2022-09-06T09:30:24;8.35;;;4.65;;
51098;SDS011;37146;48.210;16.234;2022-09-06T09:32:51;8.48;;;4.88;;
51098;SDS011;37146;48.210;16.234;2022-09-06T09:38:05;5.85;;;5.05;;
51098;SDS011;37146;48.210;16.234;2022-09-06T09:40:34;5.17;;;4.67;;
51098;SDS011;37146;48.210;16.234;2022-09-06T09:43:12;4.70;;;4.30;;
51098;SDS011;37146;48.210;16.234;2022-09-06T09:45:40;7.30;;;4.32;;
51098;SDS011;37146;48.210;16.234;2022-09-06T09:50:44;10.75;;;5.05;;
51098;SDS011;37146;48.210;16.234;2022-09-06T09:53:10;7.45;;;5.57;;
51098;SDS011;37146;48.210;16.234;2022-09-06T09:55:38;9.18;;;5.57;;
51098;SDS011;37146;48.210;16.234;2022-09-06T09:58:05;7.53;;;5.03;;
51098;SDS011;37146;48.210;16.234;2022-09-06T10:00:36;5.90;;;5.05;;
51098;SDS011;37146;48.210;16.234;2022-09-06T10:03:37;6.03;;;4.72;;
51098;SDS011;37146;48.210;16.234;2022-09-06T10:05:56;6.63;;;4.85;;
51098;SDS011;37146;48.210;16.234;2022-09-06T10:08:25;7.53;;;4.85;;
51098;SDS011;37146;48.210;16.234;2022-09-06T10:10:54;7.93;;;5.55;;
51098;SDS011;37146;48.210;16.234;2022-09-06T10:15:56;5.95;;;4.63;;
51098;SDS011;37146;48.210;16.234;2022-09-06T10:21:01;9.10;;;5.45;;
51098;SDS011;37146;48.210;16.234;2022-09-06T10:29:09;7.07;;;5.00;;
51098;SDS011;37146;48.210;16.234;2022-09-06T10:37:09;7.55;;;4.78;;
51098;SDS011;37146;48.210;16.234;2022-09-06T10:50:19;8.32;;;5.35;;
51098;SDS011;37146;48.210;16.234;2022-09-06T10:52:46;7.28;;;5.97;;
51098;SDS011;37146;48.210;16.234;2022-09-06T10:55:16;7.13;;;4.90;;
51098;SDS011;37146;48.210;16.234;2022-09-06T10:57:44;9.60;;;5.90;;
51098;SDS011;37146;48.210;16.234;2022-09-06T11:00:13;6.97;;;4.78;;
51098;SDS011;37146;48.210;16.234;2022-09-06T11:02:48;6.22;;;4.70;;
51098;SDS011;37146;48.210;16.234;2022-09-06T11:05:19;8.73;;;4.82;;
51098;SDS011;37146;48.210;16.234;2022-09-06T11:07:49;8.93;;;4.35;;
51098;SDS011;37146;48.210;16.234;2022-09-06T11:10:30;6.15;;;4.70;;
51098;SDS011;37146;48.210;16.234;2022-09-06T11:13:00;7.22;;;4.28;;
51098;SDS011;37146;48.210;16.234;2022-09-06T11:15:40;5.60;;;4.60;;
51098;SDS011;37146;48.210;16.234;2022-09-06T11:18:11;5.80;;;4.43;;
51098;SDS011;37146;48.210;16.234;2022-09-06T11:29:30;5.25;;;4.00;;
51098;SDS011;37146;48.210;16.234;2022-09-06T11:31:58;5.18;;;3.83;;
51098;SDS011;37146;48.210;16.234;2022-09-06T11:34:27;6.72;;;3.70;;
51098;SDS011;37146;48.210;16.234;2022-09-06T11:39:26;6.20;;;3.42;;
51098;SDS011;37146;48.210;16.234;2022-09-06T11:41:54;4.88;;;3.83;;
51098;SDS011;37146;48.210;16.234;2022-09-06T11:58:25;10.88;;;4.45;;
51098;SDS011;37146;48.210;16.234;2022-09-06T12:06:18;5.75;;;4.53;;
51098;SDS011;37146;48.210;16.234;2022-09-06T12:08:46;5.95;;;5.35;;
51098;SDS011;37146;48.210;16.234;2022-09-06T12:11:58;9.80;;;5.57;;
51098;SDS011;37146;48.210;16.234;2022-09-06T12:14:02;8.13;;;5.70;;
51098;SDS011;37146;48.210;16.234;2022-09-06T12:27:22;6.82;;;6.03;;
51098;SDS011;37146;48.210;16.234;2022-09-06T12:35:22;7.82;;;6.72;;
51098;SDS011;37146;48.210;16.234;2022-09-06T12:38:02;9.57;;;6.97;;
51098;SDS011;37146;48.210;16.234;2022-09-06T12:40:31;10.45;;;6.65;;
51098;SDS011;37146;48.210;16.234;2022-09-06T12:42:59;8.40;;;6.20;;
51098;SDS011;37146;48.210;16.234;2022-09-06T12:45:26;9.38;;;6.32;;
51098;SDS011;37146;48.210;16.234;2022-09-06T12:48:02;7.20;;;6.40;;
51098;SDS011;37146;48.210;16.234;2022-09-06T12:50:35;7.78;;;6.47;;
51098;SDS011;37146;48.210;16.234;2022-09-06T12:53:02;9.43;;;6.40;;
51098;SDS011;37146;48.210;16.234;2022-09-06T12:55:40;7.03;;;6.30;;
51098;SDS011;37146;48.210;16.234;2022-09-06T12:58:07;8.70;;;6.32;;
51098;SDS011;37146;48.210;16.234;2022-09-06T13:00:45;10.23;;;6.65;;
51098;SDS011;37146;48.210;16.234;2022-09-06T13:06:26;8.75;;;6.35;;
51098;SDS011;37146;48.210;16.234;2022-09-06T13:08:55;8.93;;;5.90;;
51098;SDS011;37146;48.210;16.234;2022-09-06T13:11:24;6.93;;;5.85;;
51098;SDS011;37146;48.210;16.234;2022-09-06T13:13:54;9.65;;;6.45;;
51098;SDS011;37146;48.210;16.234;2022-09-06T13:16:21;8.15;;;6.75;;
51098;SDS011;37146;48.210;16.234;2022-09-06T13:18:48;9.75;;;6.25;;
51098;SDS011;37146;48.210;16.234;2022-09-06T13:21:23;6.78;;;6.07;;
51098;SDS011;37146;48.210;16.234;2022-09-06T13:23:56;7.53;;;6.05;;
51098;SDS011;37146;48.210;16.234;2022-09-06T13:29:20;7.78;;;6.07;;
51098;SDS011;37146;48.210;16.234;2022-09-06T13:31:47;8.02;;;6.53;;
51098;SDS011;37146;48.210;16.234;2022-09-06T13:34:19;7.82;;;6.18;;
51098;SDS011;37146;48.210;16.234;2022-09-06T13:36:58;11.43;;;6.47;;
51098;SDS011;37146;48.210;16.234;2022-09-06T13:39:33;6.70;;;5.88;;
51098;SDS011;37146;48.210;16.234;2022-09-06T13:42:08;7.15;;;6.45;;
51098;SDS011;37146;48.210;16.234;2022-09-06T13:44:37;7.13;;;5.90;;
51098;SDS011;37146;48.210;16.234;2022-09-06T13:47:03;9.10;;;5.80;;
51098;SDS011;37146;48.210;16.234;2022-09-06T13:49:30;7.30;;;5.85;;
51098;SDS011;37146;48.210;16.234;2022-09-06T13:51:58;7.65;;;5.55;;
51098;SDS011;37146;48.210;16.234;2022-09-06T13:54:25;6.25;;;5.65;;
51098;SDS011;37146;48.210;16.234;2022-09-06T13:56:52;7.70;;;6.13;;
51098;SDS011;37146;48.210;16.234;2022-09-06T13:59:17;6.30;;;5.70;;
51098;SDS011;37146;48.210;16.234;2022-09-06T14:01:43;6.38;;;5.78;;
51098;SDS011;37146;48.210;16.234;2022-09-06T14:04:13;9.00;;;5.97;;
51098;SDS011;37146;48.210;16.234;2022-09-06T14:06:40;6.18;;;5.55;;
51098;SDS011;37146;48.210;16.234;2022-09-06T14:09:05;8.32;;;6.13;;
51098;SDS011;37146;48.210;16.234;2022-09-06T14:11:31;7.10;;;5.93;;
51098;SDS011;37146;48.210;16.234;2022-09-06T14:13:57;7.82;;;5.78;;
51098;SDS011;37146;48.210;16.234;2022-09-06T14:16:22;7.28;;;6.20;;
51098;SDS011;37146;48.210;16.234;2022-09-06T14:18:49;6.18;;;5.57;;
51098;SDS011;37146;48.210;16.234;2022-09-06T14:21:15;7.68;;;5.70;;
51098;SDS011;37146;48.210;16.234;2022-09-06T14:23:41;9.32;;;5.90;;
51098;SDS011;37146;48.210;16.234;2022-09-06T14:26:06;6.50;;;5.75;;
51098;SDS011;37146;48.210;16.234;2022-09-06T14:28:32;9.88;;;5.85;;
51098;SDS011;37146;48.210;16.234;2022-09-06T14:31:07;8.73;;;5.80;;
51098;SDS011;37146;48.210;16.234;2022-09-06T14:33:34;6.78;;;5.93;;
51098;SDS011;37146;48.210;16.234;2022-09-06T14:35:59;7.45;;;5.38;;
51098;SDS011;37146;48.210;16.234;2022-09-06T14:38:29;6.10;;;5.50;;
51098;SDS011;37146;48.210;16.234;2022-09-06T14:41:00;6.28;;;5.65;;
51098;SDS011;37146;48.210;16.234;2022-09-06T14:43:27;8.35;;;5.63;;
51098;SDS011;37146;48.210;16.234;2022-09-06T14:45:52;6.22;;;5.15;;
51098;SDS011;37146;48.210;16.234;2022-09-06T14:48:17;6.78;;;5.43;;
51098;SDS011;37146;48.210;16.234;2022-09-06T14:50:43;6.13;;;5.53;;
51098;SDS011;37146;48.210;16.234;2022-09-06T14:53:08;7.10;;;5.40;;
51098;SDS011;37146;48.210;16.234;2022-09-06T14:55:34;5.85;;;5.30;;
51098;SDS011;37146;48.210;16.234;2022-09-06T14:58:00;6.38;;;5.43;;
51098;SDS011;37146;48.210;16.234;2022-09-06T15:00:25;6.88;;;5.63;;
51098;SDS011;37146;48.210;16.234;2022-09-06T15:02:51;7.55;;;5.72;;
51098;SDS011;37146;48.210;16.234;2022-09-06T15:05:16;13.18;;;6.00;;
51098;SDS011;37146;48.210;16.234;2022-09-06T15:07:41;8.52;;;5.78;;
51098;SDS011;37146;48.210;16.234;2022-09-06T15:10:07;9.82;;;5.97;;
51098;SDS011;37146;48.210;16.234;2022-09-06T15:12:32;7.82;;;5.57;;
51098;SDS011;37146;48.210;16.234;2022-09-06T15:14:58;8.35;;;5.78;;
51098;SDS011;37146;48.210;16.234;2022-09-06T15:17:23;7.18;;;5.40;;
51098;SDS011;37146;48.210;16.234;2022-09-06T15:19:49;7.75;;;5.57;;
51098;SDS011;37146;48.210;16.234;2022-09-06T15:22:14;11.55;;;5.65;;
51098;SDS011;37146;48.210;16.234;2022-09-06T15:24:40;10.25;;;5.43;;
51098;SDS011;37146;48.210;16.234;2022-09-06T15:27:05;9.00;;;5.82;;
51098;SDS011;37146;48.210;16.234;2022-09-06T15:29:30;7.22;;;5.80;;
51098;SDS011;37146;48.210;16.234;2022-09-06T15:31:56;7.47;;;5.70;;
51098;SDS011;37146;48.210;16.234;2022-09-06T15:34:22;7.85;;;6.07;;
51098;SDS011;37146;48.210;16.234;2022-09-06T15:36:49;8.80;;;5.88;;
51098;SDS011;37146;48.210;16.234;2022-09-06T15:39:15;10.98;;;5.90;;
51098;SDS011;37146;48.210;16.234;2022-09-06T15:41:41;8.48;;;5.68;;
51098;SDS011;37146;48.210;16.234;2022-09-06T15:44:08;9.43;;;5.90;;
51098;SDS011;37146;48.210;16.234;2022-09-06T15:48:59;8.27;;;6.13;;
51098;SDS011;37146;48.210;16.234;2022-09-06T15:51:25;9.32;;;5.78;;
51098;SDS011;37146;48.210;16.234;2022-09-06T15:53:50;8.13;;;5.47;;
51098;SDS011;37146;48.210;16.234;2022-09-06T15:56:16;7.68;;;5.95;;
51098;SDS011;37146;48.210;16.234;2022-09-06T15:58:42;10.27;;;6.28;;
51098;SDS011;37146;48.210;16.234;2022-09-06T16:03:39;8.77;;;6.22;;
51098;SDS011;37146;48.210;16.234;2022-09-06T16:06:10;9.77;;;6.32;;
51098;SDS011;37146;48.210;16.234;2022-09-06T16:08:37;8.57;;;5.63;;
51098;SDS011;37146;48.210;16.234;2022-09-06T16:11:10;8.82;;;6.05;;
51098;SDS011;37146;48.210;16.234;2022-09-06T16:13:38;9.27;;;6.30;;
51098;SDS011;37146;48.210;16.234;2022-09-06T16:16:06;6.90;;;5.93;;
51098;SDS011;37146;48.210;16.234;2022-09-06T16:18:33;10.25;;;5.85;;
51098;SDS011;37146;48.210;16.234;2022-09-06T16:21:06;10.30;;;5.72;;
51098;SDS011;37146;48.210;16.234;2022-09-06T16:23:34;8.65;;;6.05;;
51098;SDS011;37146;48.210;16.234;2022-09-06T16:26:00;10.18;;;5.70;;
51098;SDS011;37146;48.210;16.234;2022-09-06T16:28:27;6.95;;;6.00;;
51098;SDS011;37146;48.210;16.234;2022-09-06T16:30:54;9.23;;;6.43;;
51098;SDS011;37146;48.210;16.234;2022-09-06T16:33:20;7.75;;;6.10;;
51098;SDS011;37146;48.210;16.234;2022-09-06T16:35:46;10.20;;;6.60;;
51098;SDS011;37146;48.210;16.234;2022-09-06T16:38:12;11.35;;;6.15;;
51098;SDS011;37146;48.210;16.234;2022-09-06T16:40:41;9.55;;;6.13;;
51098;SDS011;37146;48.210;16.234;2022-09-06T16:43:09;10.25;;;6.47;;
51098;SDS011;37146;48.210;16.234;2022-09-06T16:45:35;8.82;;;6.35;;